Toyomasa Maru — JJ3927 — position and weather

sailwx.info

Track history (hours):
 
Tides and Currents Weather Stations Pressure Air Temp Water Temp Dewpoint Dewpoint Depression Visibility Wind Speed Wind Dir Waves Ship Positions

Toyomasa Maru

Last reported at 2015-Mar-23 10:30 UTC. Time now 2015-Mar-29 06:13 UTC.
Position N 34°37' E 135°01'.

Length 101 m; draft 6.9 m.

Type: Tanker. MMSI: 431300401.

Date/timePositionNaut miles runAvg speedWind from/ knotsBaromVisibWave heightAir tempDewpointWater temp
2015-Mar-23 10:30N 34°37' E 135°01'1111.9
2015-Mar-23 09:33N 34°35' E 135°14'9 9.5
2015-Mar-23 08:33N 34°33' E 135°26'0 0.0
2015-Mar-23 02:09N 34°33' E 135°26'0 0.0
2015-Mar-23 01:33N 34°33' E 135°26'1 0.9
2015-Mar-23 00:33N 34°33' E 135°25'5 5.2
2015-Mar-22 23:33N 34°31' E 135°19'1313.3
2015-Mar-22 22:33N 34°23' E 135°06'1212.1
2015-Mar-22 21:33N 34°13' E 134°59'1312.7
2015-Mar-22 20:30N 33°59' E 134°59'  
2015-Mar-17 05:33N 35°01' E 139°43'1312.8
2015-Mar-17 04:33N 35°14' E 139°46'1211.6
2015-Mar-17 03:33N 35°25' E 139°44'5 1.0
2015-Mar-16 22:20N 35°30' E 139°45'3 4.1
2015-Mar-16 21:33N 35°28' E 139°43'4 4.2
2015-Mar-16 20:33N 35°24' E 139°44'0 0.0
2015-Mar-16 19:30N 35°24' E 139°45'7 7.1
2015-Mar-16 18:33N 35°17' E 139°45'1212.0
2015-Mar-16 17:33N 35°05' E 139°45'4 0.1
2015-Mar-15 06:29N 35°01' E 139°43'1213.1
2015-Mar-15 05:33N 35°13' E 139°46'1212.1
2015-Mar-15 04:33N 35°25' E 139°43'6 5.5
2015-Mar-15 03:33N 35°30' E 139°45'0 0.0
2015-Mar-15 02:31N 35°30' E 139°45'0 0.0
2015-Mar-15 01:13N 35°30' E 139°45'0 0.0
2015-Mar-15 00:19N 35°30' E 139°45'0 0.0
2015-Mar-14 23:33N 35°30' E 139°45'3 3.4
2015-Mar-14 22:33N 35°27' E 139°44'8 7.8
2015-Mar-14 21:33N 35°19' E 139°44'1212.2
2015-Mar-14 20:33N 35°07' E 139°45'  
Track history (hours):
 
Tides and Currents Weather Stations Pressure Air Temp Water Temp Dewpoint Dewpoint Depression Visibility Wind Speed Wind Dir Waves Ship Positions

Toyomasa Maru

Last reported at 2015-Mar-23 10:30 UTC. Time now 2015-Mar-29 06:13 UTC.
Position N 34°37' E 135°01'.

Length 101 m; draft 6.9 m.

Type: Tanker. MMSI: 431300401.

Date/timePositionNaut miles runAvg speedWind from/ knotsBaromVisibWave heightAir tempDewpointWater temp
2015-Mar-23 10:30N 34°37' E 135°01'1111.9
2015-Mar-23 09:33N 34°35' E 135°14'9 9.5
2015-Mar-23 08:33N 34°33' E 135°26'0 0.0
2015-Mar-23 02:09N 34°33' E 135°26'0 0.0
2015-Mar-23 01:33N 34°33' E 135°26'1 0.9
2015-Mar-23 00:33N 34°33' E 135°25'5 5.2
2015-Mar-22 23:33N 34°31' E 135°19'1313.3
2015-Mar-22 22:33N 34°23' E 135°06'1212.1
2015-Mar-22 21:33N 34°13' E 134°59'1312.7
2015-Mar-22 20:30N 33°59' E 134°59'  
2015-Mar-17 05:33N 35°01' E 139°43'1312.8
2015-Mar-17 04:33N 35°14' E 139°46'1211.6
2015-Mar-17 03:33N 35°25' E 139°44'5 1.0
2015-Mar-16 22:20N 35°30' E 139°45'3 4.1
2015-Mar-16 21:33N 35°28' E 139°43'4 4.2
2015-Mar-16 20:33N 35°24' E 139°44'0 0.0
2015-Mar-16 19:30N 35°24' E 139°45'7 7.1
2015-Mar-16 18:33N 35°17' E 139°45'1212.0
2015-Mar-16 17:33N 35°05' E 139°45'4 0.1
2015-Mar-15 06:29N 35°01' E 139°43'1213.1
2015-Mar-15 05:33N 35°13' E 139°46'1212.1
2015-Mar-15 04:33N 35°25' E 139°43'6 5.5
2015-Mar-15 03:33N 35°30' E 139°45'0 0.0
2015-Mar-15 02:31N 35°30' E 139°45'0 0.0
2015-Mar-15 01:13N 35°30' E 139°45'0 0.0
2015-Mar-15 00:19N 35°30' E 139°45'0 0.0
2015-Mar-14 23:33N 35°30' E 139°45'3 3.4
2015-Mar-14 22:33N 35°27' E 139°44'8 7.8
2015-Mar-14 21:33N 35°19' E 139°44'1212.2
2015-Mar-14 20:33N 35°07' E 139°45'  

Dump ship's entire track history